createdAt,value
2023-01-22T00:01:33.029Z,100552.38
2023-01-22T00:04:01.868Z,100546.38
2023-01-22T00:06:32.207Z,100558.88
2023-01-22T00:09:04.088Z,100558.16
2023-01-22T00:11:33.075Z,100565.53
2023-01-22T00:14:01.811Z,100568.31
2023-01-22T00:16:30.350Z,100567.59
2023-01-22T00:18:59.183Z,100566.88
2023-01-22T00:21:27.990Z,100571.31
2023-01-22T00:23:56.810Z,100567.09
2023-01-22T00:26:25.191Z,100565.41
2023-01-22T00:28:54.613Z,100550.41
2023-01-22T00:31:24.461Z,100570.13
2023-01-22T00:34:09.018Z,100567.59
2023-01-22T00:36:38.231Z,100573.84
2023-01-22T00:39:06.535Z,100581.91
2023-01-22T00:41:38.180Z,100572.50
2023-01-22T00:44:06.769Z,100580.31
2023-01-22T00:46:35.642Z,100575.50
2023-01-22T00:49:04.067Z,100578.03
2023-01-22T00:51:33.931Z,100587.81
2023-01-22T00:54:02.659Z,100588.88
2023-01-22T00:56:32.708Z,100590.69
2023-01-22T00:59:01.395Z,100593.59
2023-01-22T01:01:30.158Z,100595.38
2023-01-22T01:03:59.119Z,100599.84
2023-01-22T01:06:29.403Z,100592.38
2023-01-22T01:09:02.201Z,100608.00
2023-01-22T01:11:32.390Z,100596.94
2023-01-22T01:14:02.008Z,100602.00
2023-01-22T01:16:32.125Z,100600.44
2023-01-22T01:19:02.770Z,100593.06
2023-01-22T01:21:31.668Z,100608.50
2023-01-22T01:24:01.238Z,100613.06
2023-01-22T01:26:30.163Z,100608.13
2023-01-22T01:28:58.558Z,100609.59
2023-01-22T01:31:28.371Z,100609.81
2023-01-22T01:33:59.129Z,100610.78
2023-01-22T01:36:47.200Z,100608.50
2023-01-22T01:39:16.418Z,100612.09
2023-01-22T01:41:45.228Z,100623.41
2023-01-22T01:44:20.889Z,100625.34
2023-01-22T01:47:01.357Z,100622.81
2023-01-22T01:49:37.452Z,100618.59
2023-01-22T01:52:09.896Z,100618.81
2023-01-22T01:54:40.577Z,100626.91
2023-01-22T01:57:13.222Z,100628.47
2023-01-22T01:59:41.671Z,100627.72
2023-01-22T02:02:10.654Z,100633.25
2023-01-22T02:04:39.249Z,100625.56
2023-01-22T02:07:08.081Z,100628.31
2023-01-22T02:09:36.437Z,100640.47
2023-01-22T02:12:05.534Z,100637.81
2023-01-22T02:14:37.420Z,100628.53
2023-01-22T02:17:16.721Z,100636.63
2023-01-22T02:19:45.128Z,100640.84
2023-01-22T02:22:24.607Z,100631.53
2023-01-22T02:24:53.003Z,100637.44
2023-01-22T02:27:21.815Z,100637.44
2023-01-22T02:29:51.563Z,100636.72
2023-01-22T02:32:20.400Z,100628.25
2023-01-22T02:34:48.761Z,100636.84
2023-01-22T02:37:17.551Z,100642.13
2023-01-22T02:39:45.878Z,100642.34
2023-01-22T02:42:14.942Z,100639.94
2023-01-22T02:44:44.626Z,100631.38
2023-01-22T02:47:14.760Z,100638.13
2023-01-22T02:49:43.088Z,100629.66
2023-01-22T02:52:13.141Z,100638.25
2023-01-22T02:54:41.539Z,100637.50
2023-01-22T02:57:10.260Z,100642.06
2023-01-22T02:59:38.717Z,100644.72
2023-01-22T03:02:11.794Z,100646.66
2023-01-22T03:04:40.358Z,100643.16
2023-01-22T03:07:11.499Z,100644.09
2023-01-22T03:09:39.890Z,100640.63
2023-01-22T03:12:09.577Z,100638.94
2023-01-22T03:14:57.559Z,100641.69
2023-01-22T03:17:45.037Z,100647.84
2023-01-22T03:20:32.090Z,100650.59
2023-01-22T03:23:00.868Z,100635.78
2023-01-22T03:25:29.249Z,100630.47
2023-01-22T03:28:08.886Z,100629.63
2023-01-22T03:30:39.422Z,100634.31
2023-01-22T03:33:09.699Z,100639.63
2023-01-22T03:35:39.454Z,100643.19
2023-01-22T03:38:19.200Z,100627.13
2023-01-22T03:40:48.018Z,100629.47
2023-01-22T03:43:16.828Z,100634.53
2023-01-22T03:45:45.277Z,100639.94
2023-01-22T03:48:17.079Z,100640.91
2023-01-22T03:50:45.571Z,100643.66
2023-01-22T03:53:15.548Z,100650.66
2023-01-22T03:55:43.969Z,100658.81
2023-01-22T03:58:12.982Z,100670.25
2023-01-22T04:00:41.525Z,100665.09
2023-01-22T04:03:10.745Z,100661.69
2023-01-22T04:05:41.574Z,100662.84
2023-01-22T04:08:10.328Z,100679.47
2023-01-22T04:10:43.489Z,100672.84
2023-01-22T04:13:13.827Z,100678.75
2023-01-22T04:15:45.890Z,100671.78
2023-01-22T04:18:27.983Z,100680.66
2023-01-22T04:21:16.335Z,100663.75
2023-01-22T04:23:52.610Z,100683.44
2023-01-22T04:26:21.774Z,100680.16
2023-01-22T04:28:50.674Z,100681.00
2023-01-22T04:31:22.347Z,100671.69
2023-01-22T04:34:01.577Z,100687.25
2023-01-22T04:36:33.599Z,100683.75
2023-01-22T04:39:02.419Z,100694.44
2023-01-22T04:41:30.928Z,100690.34
2023-01-22T04:43:59.742Z,100697.09
2023-01-22T04:46:30.098Z,100712.16
2023-01-22T04:48:59.142Z,100708.78
2023-01-22T04:51:27.836Z,100714.06
2023-01-22T04:53:56.839Z,100714.91
2023-01-22T04:56:25.489Z,100708.78
2023-01-22T04:58:54.262Z,100706.63
2023-01-22T05:01:23.294Z,100723.88
2023-01-22T05:03:52.431Z,100715.09
2023-01-22T05:06:21.832Z,100712.38
2023-01-22T05:08:50.661Z,100722.97
2023-01-22T05:11:19.069Z,100723.28
2023-01-22T05:13:58.442Z,100726.00
2023-01-22T05:16:27.210Z,100721.84
2023-01-22T05:18:56.169Z,100731.53
2023-01-22T05:21:24.541Z,100738.31
2023-01-22T05:23:53.625Z,100729.69
2023-01-22T05:26:22.229Z,100732.16
2023-01-22T05:28:56.085Z,100732.56
2023-01-22T05:31:42.983Z,100739.72
2023-01-22T05:34:26.102Z,100738.16
2023-01-22T05:36:54.699Z,100745.69
2023-01-22T05:39:25.913Z,100752.63
2023-01-22T05:41:56.256Z,100745.31
2023-01-22T05:44:26.513Z,100758.00
2023-01-22T05:46:56.980Z,100750.41
2023-01-22T05:49:34.419Z,100755.03
2023-01-22T05:52:02.947Z,100767.72
2023-01-22T05:54:31.748Z,100770.13
2023-01-22T05:57:01.384Z,100767.34
2023-01-22T05:59:31.167Z,100774.59
2023-01-22T06:02:04.255Z,100779.44
2023-01-22T06:04:35.060Z,100777.66
2023-01-22T06:07:08.639Z,100782.25
2023-01-22T06:09:38.762Z,100793.22
2023-01-22T06:12:07.641Z,100798.09
2023-01-22T06:14:37.613Z,100810.28
2023-01-22T06:17:07.831Z,100805.56
2023-01-22T06:19:40.661Z,100807.41
2023-01-22T06:22:11.089Z,100813.06
2023-01-22T06:24:48.400Z,100812.56
2023-01-22T06:27:18.909Z,100810.28
2023-01-22T06:30:01.843Z,100815.00
2023-01-22T06:32:30.903Z,100817.66
2023-01-22T06:35:02.600Z,100814.75
2023-01-22T06:37:31.068Z,100822.72
2023-01-22T06:40:00.639Z,100826.44
2023-01-22T06:42:42.054Z,100828.25
2023-01-22T06:45:11.378Z,100835.47
2023-01-22T06:47:46.005Z,100837.28
2023-01-22T06:50:16.082Z,100847.53
2023-01-22T06:52:44.642Z,100848.13
2023-01-22T06:55:13.393Z,100844.41
2023-01-22T06:57:41.903Z,100853.34
2023-01-22T07:00:11.452Z,100848.41
2023-01-22T07:02:41.547Z,100839.00
2023-01-22T07:05:11.423Z,100833.56
2023-01-22T07:07:39.793Z,100829.81
2023-01-22T07:10:10.211Z,100833.91
2023-01-22T07:12:38.684Z,100811.59
2023-01-22T07:15:08.147Z,100836.75
2023-01-22T07:17:37.754Z,100849.53
2023-01-22T07:20:06.863Z,100843.13
2023-01-22T07:22:35.341Z,100849.66
2023-01-22T07:25:04.357Z,100855.00
2023-01-22T07:27:35.105Z,100864.31
2023-01-22T07:30:06.859Z,100867.41
2023-01-22T07:32:36.023Z,100870.41
2023-01-22T07:35:05.202Z,100874.03
2023-01-22T07:37:33.678Z,100892.75
2023-01-22T07:40:03.042Z,100897.94
2023-01-22T07:42:31.530Z,100898.03
2023-01-22T07:45:00.357Z,100890.56
2023-01-22T07:47:28.848Z,100906.72
2023-01-22T07:49:57.611Z,100895.50
2023-01-22T07:52:26.027Z,100908.28
2023-01-22T07:54:55.780Z,100904.25
2023-01-22T07:57:24.316Z,100906.31
2023-01-22T07:59:53.092Z,100917.50
2023-01-22T08:02:21.513Z,100922.81
2023-01-22T08:04:50.243Z,100919.66
2023-01-22T08:07:19.635Z,100920.72
2023-01-22T08:09:48.274Z,100921.91
2023-01-22T08:12:16.684Z,100923.94
2023-01-22T08:14:45.476Z,100933.09
2023-01-22T08:17:14.653Z,100931.53
2023-01-22T08:19:44.389Z,100931.88
2023-01-22T08:22:12.882Z,100936.47
2023-01-22T08:24:43.135Z,100942.09
2023-01-22T08:27:12.633Z,100942.44
2023-01-22T08:29:41.271Z,100947.00
2023-01-22T08:32:09.816Z,100943.63
2023-01-22T08:34:38.612Z,100931.28
2023-01-22T08:37:07.650Z,100937.44
2023-01-22T08:39:36.407Z,100948.69
2023-01-22T08:42:04.851Z,100943.38
2023-01-22T08:44:33.661Z,100951.44
2023-01-22T08:47:02.010Z,100956.63
2023-01-22T08:49:32.005Z,100961.84
2023-01-22T08:52:00.793Z,100958.25
2023-01-22T08:54:30.539Z,100961.00
2023-01-22T08:56:58.941Z,100955.69
2023-01-22T08:59:29.970Z,100962.47
2023-01-22T09:02:00.283Z,100965.34
2023-01-22T09:04:29.240Z,100963.97
2023-01-22T09:06:57.681Z,100966.13
2023-01-22T09:09:26.446Z,100970.59
2023-01-22T09:11:54.930Z,100979.06
2023-01-22T09:14:23.861Z,100983.28
2023-01-22T09:16:52.324Z,100974.47
2023-01-22T09:19:21.081Z,100986.69
2023-01-22T09:21:49.570Z,100989.16
2023-01-22T09:24:18.357Z,100989.28
2023-01-22T09:26:46.789Z,100998.38
2023-01-22T09:29:15.702Z,101001.34
2023-01-22T09:31:44.168Z,101007.81
2023-01-22T09:34:12.951Z,101008.06
2023-01-22T09:36:43.132Z,100998.72
2023-01-22T09:39:11.888Z,101010.06
2023-01-22T09:41:43.428Z,101008.59
2023-01-22T09:44:18.762Z,101013.03
2023-01-22T09:47:04.591Z,101006.88
2023-01-22T09:49:45.198Z,101019.41
2023-01-22T09:52:13.561Z,101001.06
2023-01-22T09:54:44.093Z,101009.13
2023-01-22T09:57:30.000Z,101008.25
2023-01-22T10:00:00.990Z,101006.59
2023-01-22T10:02:42.695Z,101008.41
2023-01-22T10:05:23.555Z,101006.38
2023-01-22T10:07:55.022Z,101000.84
2023-01-22T10:10:27.062Z,100996.06
2023-01-22T10:13:24.885Z,101009.53
2023-01-22T10:15:55.215Z,101013.22
2023-01-22T10:18:46.396Z,101000.47
2023-01-22T10:21:26.569Z,101006.59
2023-01-22T10:23:57.100Z,101006.88
2023-01-22T10:26:25.745Z,101011.63
2023-01-22T10:28:58.837Z,100992.75
2023-01-22T10:31:34.508Z,101010.88
2023-01-22T10:34:15.984Z,100996.34
2023-01-22T10:36:52.674Z,101008.50
2023-01-22T10:39:21.287Z,101010.28
2023-01-22T10:41:51.282Z,101011.00
2023-01-22T10:44:26.208Z,101000.13
2023-01-22T10:46:55.924Z,100990.41
2023-01-22T10:49:28.312Z,100990.97
2023-01-22T10:52:05.559Z,100996.19
2023-01-22T10:54:39.952Z,100997.56
2023-01-22T10:57:25.532Z,100989.00
2023-01-22T11:00:13.964Z,100988.41
2023-01-22T11:02:44.683Z,100987.81
2023-01-22T11:05:23.665Z,100988.56
2023-01-22T11:08:06.057Z,100977.88
2023-01-22T11:10:51.468Z,100995.66
2023-01-22T11:13:30.582Z,100985.63
2023-01-22T11:16:02.714Z,100988.03
2023-01-22T11:19:00.209Z,100979.81
2023-01-22T11:21:50.679Z,100973.53
2023-01-22T11:24:27.149Z,100980.88
2023-01-22T11:27:32.521Z,100973.88
2023-01-22T11:30:37.973Z,100976.88
2023-01-22T11:34:09.080Z,100965.66
2023-01-22T11:37:09.637Z,100976.06
2023-01-22T11:40:10.711Z,100970.72
2023-01-22T11:43:21.974Z,100962.88
2023-01-22T11:46:31.586Z,100956.38
2023-01-22T11:49:15.342Z,100957.81
2023-01-22T11:51:55.488Z,100959.03
2023-01-22T11:54:47.208Z,100956.38
2023-01-22T11:57:37.632Z,100941.13
2023-01-22T12:00:46.230Z,100948.13
2023-01-22T12:03:33.432Z,100953.72
2023-01-22T12:06:24.799Z,100945.25
2023-01-22T12:09:18.559Z,100923.00
2023-01-22T12:12:42.729Z,100942.34
2023-01-22T12:15:29.247Z,100942.13
2023-01-22T12:18:23.511Z,100947.31
2023-01-22T12:21:12.654Z,100950.09
2023-01-22T12:23:46.728Z,100951.19
2023-01-22T12:26:31.201Z,100949.59
2023-01-22T12:29:29.611Z,100940.19
2023-01-22T12:32:00.060Z,100938.13
2023-01-22T12:34:34.651Z,100944.66
2023-01-22T12:37:03.131Z,100942.00
2023-01-22T12:39:37.159Z,100947.56
2023-01-22T12:42:39.113Z,100941.13
2023-01-22T12:45:21.454Z,100941.63
2023-01-22T12:48:18.171Z,100946.94
2023-01-22T12:51:05.276Z,100948.53
2023-01-22T12:53:34.957Z,100952.75
2023-01-22T12:56:10.696Z,100943.81
2023-01-22T12:58:42.246Z,100953.47
2023-01-22T13:01:14.133Z,100951.41
2023-01-22T13:03:42.669Z,100947.81
2023-01-22T13:06:35.455Z,100955.66
2023-01-22T13:09:05.702Z,100948.41
2023-01-22T13:11:39.034Z,100931.09
2023-01-22T13:14:31.370Z,100944.88
2023-01-22T13:17:04.227Z,100951.88
2023-01-22T13:19:45.289Z,100940.16
2023-01-22T13:22:23.552Z,100957.44
2023-01-22T13:24:58.267Z,100949.59
2023-01-22T13:27:33.517Z,100951.53
2023-01-22T13:30:27.052Z,100961.44
2023-01-22T13:33:14.400Z,100953.94
2023-01-22T13:35:46.692Z,100961.19
2023-01-22T13:38:32.952Z,100965.75
2023-01-22T13:41:09.181Z,100967.81
2023-01-22T13:43:39.608Z,100964.44
2023-01-22T13:46:08.081Z,100973.16
2023-01-22T13:48:36.834Z,100967.81
2023-01-22T13:51:14.863Z,100973.16
2023-01-22T13:53:54.536Z,100974.00
2023-01-22T13:56:26.953Z,100977.13
2023-01-22T13:59:35.531Z,100984.66
2023-01-22T14:02:32.520Z,100986.28
2023-01-22T14:05:01.818Z,100979.53
2023-01-22T14:07:34.612Z,100992.09
2023-01-22T14:10:22.809Z,100984.56
2023-01-22T14:13:08.004Z,100990.34
2023-01-22T14:15:38.553Z,100991.63
2023-01-22T14:18:17.810Z,100994.88
2023-01-22T14:20:47.561Z,100998.00
2023-01-22T14:23:16.315Z,101005.22
2023-01-22T14:25:50.269Z,101017.03
2023-01-22T14:28:19.261Z,101012.06
2023-01-22T14:30:49.012Z,101008.03
2023-01-22T14:33:24.181Z,101002.47
2023-01-22T14:35:53.828Z,100996.53
2023-01-22T14:38:23.164Z,101017.56
2023-01-22T14:40:52.311Z,101008.97
2023-01-22T14:43:21.048Z,101020.75
2023-01-22T14:45:51.999Z,101020.13
2023-01-22T14:48:20.835Z,101013.59
2023-01-22T14:50:50.239Z,101021.44
2023-01-22T14:53:19.603Z,101019.97
2023-01-22T14:55:49.503Z,101016.56
2023-01-22T14:58:18.066Z,101021.03
2023-01-22T15:00:48.068Z,101024.34
2023-01-22T15:03:16.675Z,101025.91
2023-01-22T15:05:45.708Z,101025.19
2023-01-22T15:08:14.179Z,101019.13
2023-01-22T15:10:42.993Z,101021.94
2023-01-22T15:13:11.523Z,100994.00
2023-01-22T15:15:40.432Z,101026.59
2023-01-22T15:18:08.925Z,101023.41
2023-01-22T15:20:38.342Z,101026.81
2023-01-22T15:23:06.842Z,101029.69
2023-01-22T15:25:36.842Z,101034.28
2023-01-22T15:28:05.666Z,101037.88
2023-01-22T15:30:34.614Z,101038.84
2023-01-22T15:33:03.163Z,101037.22
2023-01-22T15:35:33.286Z,101016.22
2023-01-22T15:38:05.688Z,101050.56
2023-01-22T15:40:39.690Z,101043.78
2023-01-22T15:43:08.334Z,101043.47
2023-01-22T15:45:37.237Z,101047.59
2023-01-22T15:48:06.103Z,101055.47
2023-01-22T15:50:35.112Z,101042.31
2023-01-22T15:53:03.738Z,101054.84
2023-01-22T15:55:32.657Z,101044.88
2023-01-22T15:58:01.217Z,101053.13
2023-01-22T16:00:33.322Z,101042.09
2023-01-22T16:03:01.911Z,101053.63
2023-01-22T16:05:30.771Z,101051.34
2023-01-22T16:07:59.364Z,101063.25
2023-01-22T16:10:28.202Z,101068.09
2023-01-22T16:12:56.787Z,101070.31
2023-01-22T16:15:25.585Z,101069.28
2023-01-22T16:17:54.703Z,101068.97
2023-01-22T16:20:23.664Z,101063.72
2023-01-22T16:22:52.172Z,101079.84
2023-01-22T16:25:21.035Z,101074.06
2023-01-22T16:27:49.481Z,101080.50
2023-01-22T16:30:18.912Z,101086.09
2023-01-22T16:32:48.341Z,101081.75
2023-01-22T16:35:19.193Z,101083.84
2023-01-22T16:37:47.642Z,101092.91
2023-01-22T16:40:18.669Z,101094.25
2023-01-22T16:43:00.228Z,101099.00
2023-01-22T16:45:29.061Z,101095.38
2023-01-22T16:47:57.873Z,101100.41
2023-01-22T16:50:26.847Z,101107.91
2023-01-22T16:52:55.335Z,101108.63
2023-01-22T16:55:24.216Z,101105.59
2023-01-22T16:57:53.822Z,101103.44
2023-01-22T17:00:22.820Z,101099.47
2023-01-22T17:02:51.441Z,101120.66
2023-01-22T17:05:21.728Z,101114.59
2023-01-22T17:07:50.126Z,101113.38
2023-01-22T17:10:19.231Z,101113.63
2023-01-22T17:12:47.804Z,101116.75
2023-01-22T17:15:18.721Z,101118.44
2023-01-22T17:17:47.784Z,101120.88
2023-01-22T17:20:17.130Z,101122.31
2023-01-22T17:22:46.054Z,101115.44
2023-01-22T17:25:15.459Z,101123.66
2023-01-22T17:27:43.985Z,101120.75
2023-01-22T17:30:13.491Z,101116.78
2023-01-22T17:32:41.934Z,101120.75
2023-01-22T17:35:11.751Z,101130.34
2023-01-22T17:37:40.302Z,101128.47
2023-01-22T17:40:10.481Z,101130.66
2023-01-22T17:42:39.063Z,101134.13
2023-01-22T17:45:09.245Z,101130.03
2023-01-22T17:47:37.794Z,101126.13
2023-01-22T17:50:09.571Z,101123.00
2023-01-22T17:52:38.111Z,101117.28
2023-01-22T17:55:07.793Z,101131.19
2023-01-22T17:57:36.330Z,101125.50
2023-01-22T18:00:06.079Z,101128.56
2023-01-22T18:02:36.468Z,101133.31
2023-01-22T18:05:05.899Z,101133.44
2023-01-22T18:07:35.570Z,101136.72
2023-01-22T18:10:04.960Z,101141.44
2023-01-22T18:12:33.430Z,101147.75
2023-01-22T18:15:02.209Z,101146.16
2023-01-22T18:17:30.639Z,101154.88
2023-01-22T18:19:59.454Z,101149.28
2023-01-22T18:22:28.061Z,101153.44
2023-01-22T18:24:59.224Z,101162.03
2023-01-22T18:27:28.063Z,101164.84
2023-01-22T18:29:56.864Z,101160.78
2023-01-22T18:32:25.407Z,101174.22
2023-01-22T18:34:55.559Z,101180.84
2023-01-22T18:37:24.081Z,101175.75
2023-01-22T18:39:52.969Z,101171.53
2023-01-22T18:42:21.480Z,101177.34
2023-01-22T18:44:50.289Z,101170.56
2023-01-22T18:47:18.765Z,101173.44
2023-01-22T18:49:49.503Z,101183.34
2023-01-22T18:52:17.996Z,101192.16
2023-01-22T18:54:46.909Z,101187.31
2023-01-22T18:57:15.271Z,101188.53
2023-01-22T18:59:44.114Z,101197.34
2023-01-22T19:02:16.557Z,101200.81
2023-01-22T19:04:47.386Z,101212.41
2023-01-22T19:07:15.798Z,101205.00
2023-01-22T19:09:44.619Z,101219.81
2023-01-22T19:12:15.545Z,101231.03
2023-01-22T19:14:44.419Z,101239.41
2023-01-22T19:17:13.020Z,101229.63
2023-01-22T19:19:41.909Z,101235.94
2023-01-22T19:22:10.351Z,101231.34
2023-01-22T19:24:39.150Z,101241.19
2023-01-22T19:27:08.407Z,101241.81
2023-01-22T19:29:37.259Z,101237.25
2023-01-22T19:32:06.069Z,101238.50
2023-01-22T19:34:34.913Z,101228.94
2023-01-22T19:37:03.578Z,101229.88
2023-01-22T19:39:33.109Z,101229.88
2023-01-22T19:42:03.192Z,101235.00
2023-01-22T19:44:33.083Z,101231.94
2023-01-22T19:47:02.165Z,101238.75
2023-01-22T19:49:31.093Z,101238.31
2023-01-22T19:51:59.548Z,101237.69
2023-01-22T19:54:28.431Z,101228.63
2023-01-22T19:56:57.135Z,101239.16
2023-01-22T19:59:25.992Z,101240.22
2023-01-22T20:01:54.534Z,101244.69
2023-01-22T20:04:26.715Z,101239.72
2023-01-22T20:07:00.996Z,101233.16
2023-01-22T20:09:30.480Z,101235.81
2023-01-22T20:11:59.226Z,101240.41
2023-01-22T20:14:34.448Z,101237.25
2023-01-22T20:17:04.324Z,101237.25
2023-01-22T20:19:32.891Z,101237.25
2023-01-22T20:22:04.538Z,101229.88
2023-01-22T20:24:34.231Z,101229.78
2023-01-22T20:27:03.036Z,101230.78
2023-01-22T20:29:31.549Z,101230.69
2023-01-22T20:32:00.458Z,101231.22
2023-01-22T20:34:29.480Z,101230.00
2023-01-22T20:36:58.292Z,101233.06
2023-01-22T20:39:26.895Z,101235.50
2023-01-22T20:41:55.792Z,101237.31
2023-01-22T20:44:24.433Z,101233.22
2023-01-22T20:46:53.334Z,101232.97
2023-01-22T20:49:21.748Z,101227.75
2023-01-22T20:51:50.759Z,101229.59
2023-01-22T20:54:19.751Z,101222.03
2023-01-22T20:56:48.719Z,101218.91
2023-01-22T20:59:18.725Z,101228.53
2023-01-22T21:01:47.634Z,101228.25
2023-01-22T21:04:16.429Z,101222.69
2023-01-22T21:06:45.181Z,101215.06
2023-01-22T21:09:13.943Z,101226.16
2023-01-22T21:11:42.948Z,101224.81
2023-01-22T21:14:16.639Z,101221.63
2023-01-22T21:16:45.510Z,101211.34
2023-01-22T21:19:23.771Z,101211.09
2023-01-22T21:21:53.028Z,101209.38
2023-01-22T21:24:21.936Z,101223.88
2023-01-22T21:26:50.855Z,101217.81
2023-01-22T21:29:21.423Z,101208.69
2023-01-22T21:31:52.414Z,101208.47
2023-01-22T21:34:23.299Z,101204.84
2023-01-22T21:36:54.663Z,101196.13
2023-01-22T21:39:25.176Z,101210.22
2023-01-22T21:42:14.636Z,101208.81
2023-01-22T21:45:02.775Z,101198.78
2023-01-22T21:47:31.540Z,101204.88
2023-01-22T21:50:00.180Z,101203.69
2023-01-22T21:52:29.252Z,101202.84
2023-01-22T21:54:57.715Z,101204.56
2023-01-22T21:57:26.655Z,101209.41
2023-01-22T21:59:55.058Z,101219.56
2023-01-22T22:02:23.967Z,101232.16
2023-01-22T22:04:52.415Z,101232.38
2023-01-22T22:07:21.205Z,101224.66
2023-01-22T22:09:49.703Z,101222.19
2023-01-22T22:12:18.502Z,101230.44
2023-01-22T22:14:46.939Z,101233.56
2023-01-22T22:17:15.749Z,101227.63
2023-01-22T22:19:44.196Z,101224.81
2023-01-22T22:22:12.994Z,101224.47
2023-01-22T22:24:41.543Z,101224.09
2023-01-22T22:27:10.384Z,101229.88
2023-01-22T22:29:38.886Z,101233.25
2023-01-22T22:32:07.759Z,101236.97
2023-01-22T22:34:36.155Z,101240.19
2023-01-22T22:37:06.241Z,101242.25
2023-01-22T22:39:34.764Z,101245.03
2023-01-22T22:42:03.625Z,101237.38
2023-01-22T22:44:32.091Z,101229.97
2023-01-22T22:47:00.956Z,101241.56
2023-01-22T22:49:29.375Z,101240.84
2023-01-22T22:51:58.130Z,101238.41
2023-01-22T22:54:26.576Z,101239.59
2023-01-22T22:56:55.325Z,101237.91
2023-01-22T22:59:23.776Z,101226.84
2023-01-22T23:01:52.507Z,101217.50
2023-01-22T23:04:20.983Z,101228.16
2023-01-22T23:06:49.778Z,101223.06
2023-01-22T23:09:20.139Z,101222.44
2023-01-22T23:11:52.192Z,101230.50
2023-01-22T23:14:20.680Z,101222.75
2023-01-22T23:16:50.677Z,101219.47
2023-01-22T23:19:24.775Z,101214.38
2023-01-22T23:21:58.680Z,101224.25
2023-01-22T23:24:27.928Z,101227.25
2023-01-22T23:26:58.024Z,101222.16
2023-01-22T23:29:29.669Z,101214.63
2023-01-22T23:31:58.757Z,101210.38
2023-01-22T23:34:27.232Z,101196.47
2023-01-22T23:36:56.089Z,101199.75
2023-01-22T23:39:24.543Z,101200.81
2023-01-22T23:41:54.022Z,101197.41
2023-01-22T23:44:22.575Z,101187.88
2023-01-22T23:46:51.952Z,101191.47
2023-01-22T23:49:20.413Z,101182.75
2023-01-22T23:51:49.337Z,101187.22
2023-01-22T23:54:17.883Z,101192.00
2023-01-22T23:56:46.707Z,101199.25
2023-01-22T23:59:15.167Z,101197.56
